createdAt,value
2019-05-25T00:00:59.869Z,6.97
2019-05-25T00:05:57.099Z,7.00
2019-05-25T00:10:52.603Z,6.80
2019-05-25T00:15:48.463Z,7.10
2019-05-25T00:20:43.878Z,6.67
2019-05-25T00:25:38.909Z,7.43
2019-05-25T00:30:33.850Z,7.93
2019-05-25T00:35:28.796Z,7.70
2019-05-25T00:40:23.798Z,7.83
2019-05-25T00:45:18.752Z,7.70
2019-05-25T00:50:14.754Z,8.17
2019-05-25T00:55:10.526Z,7.80
2019-05-25T01:00:06.269Z,8.33
2019-05-25T01:05:01.209Z,7.90
2019-05-25T01:09:56.154Z,7.90
2019-05-25T01:14:51.144Z,7.83
2019-05-25T01:19:46.110Z,8.23
2019-05-25T01:24:44.883Z,7.40
2019-05-25T01:29:40.053Z,8.17
2019-05-25T01:34:34.944Z,8.50
2019-05-25T01:39:29.839Z,8.17
2019-05-25T01:44:25.791Z,8.20
2019-05-25T01:49:20.728Z,8.27
2019-05-25T01:54:16.980Z,9.23
2019-05-25T01:59:11.873Z,8.90
2019-05-25T02:04:06.846Z,8.80
2019-05-25T02:09:01.748Z,9.47
2019-05-25T02:13:56.659Z,7.80
2019-05-25T02:18:53.538Z,9.03
2019-05-25T02:23:48.403Z,8.80
2019-05-25T02:28:43.267Z,9.80
2019-05-25T02:33:38.161Z,9.10
2019-05-25T02:38:33.052Z,9.10
2019-05-25T02:43:28.340Z,8.80
2019-05-25T02:48:23.257Z,8.20
2019-05-25T02:53:18.122Z,8.70
2019-05-25T02:58:13.008Z,9.00
2019-05-25T03:03:11.171Z,9.00
2019-05-25T03:08:06.601Z,7.57
2019-05-25T03:13:02.981Z,8.07
2019-05-25T03:17:57.981Z,8.10
2019-05-25T03:22:53.356Z,8.23
2019-05-25T03:27:48.344Z,8.37
2019-05-25T03:32:43.299Z,9.40
2019-05-25T03:37:40.347Z,10.00
2019-05-25T03:42:35.450Z,7.90
2019-05-25T03:47:30.403Z,8.77
2019-05-25T03:52:25.387Z,8.87
2019-05-25T03:57:20.342Z,9.17
2019-05-25T04:02:21.294Z,9.03
2019-05-25T04:07:16.140Z,10.40
2019-05-25T04:12:11.072Z,10.47
2019-05-25T04:17:06.255Z,10.70
2019-05-25T04:22:01.432Z,11.50
2019-05-25T04:26:56.461Z,11.90
2019-05-25T04:31:51.457Z,11.47
2019-05-25T04:36:46.367Z,11.33
2019-05-25T04:41:41.305Z,10.93
2019-05-25T04:46:36.271Z,11.77
2019-05-25T04:51:31.252Z,10.87
2019-05-25T04:56:39.062Z,10.83
2019-05-25T05:01:22.876Z,10.87
2019-05-25T05:06:21.071Z,10.90
2019-05-25T05:11:16.049Z,11.00
2019-05-25T05:16:12.957Z,10.17
2019-05-25T05:21:07.946Z,9.83
2019-05-25T05:26:04.869Z,9.50
2019-05-25T05:30:59.927Z,10.70
2019-05-25T05:36:00.888Z,11.43
2019-05-25T05:41:02.108Z,10.73
2019-05-25T05:45:59.424Z,10.80
2019-05-25T05:51:00.291Z,11.63
2019-05-25T05:55:55.469Z,11.13
2019-05-25T06:00:50.363Z,9.97
2019-05-25T06:05:45.292Z,10.23
2019-05-25T06:10:40.288Z,10.20
2019-05-25T06:15:35.238Z,10.07
2019-05-25T06:20:32.499Z,9.17
2019-05-25T06:25:27.513Z,8.23
2019-05-25T06:30:23.732Z,8.10
2019-05-25T06:35:19.682Z,7.13
2019-05-25T06:40:15.773Z,6.80
2019-05-25T06:45:12.236Z,7.97
2019-05-25T06:50:08.368Z,7.73
2019-05-25T06:55:03.257Z,7.70
2019-05-25T06:59:58.194Z,7.97
2019-05-25T07:04:53.188Z,7.63
2019-05-25T07:09:49.108Z,8.47
2019-05-25T07:14:44.015Z,6.40
2019-05-25T07:19:44.800Z,6.70
2019-05-25T07:24:42.237Z,6.67
2019-05-25T07:29:37.172Z,6.83
2019-05-25T07:34:32.140Z,7.40
2019-05-25T07:39:27.063Z,7.33
2019-05-25T07:44:25.051Z,5.67
2019-05-25T07:49:19.990Z,6.20
2019-05-25T07:54:14.962Z,6.37
2019-05-25T07:59:09.914Z,6.27
2019-05-25T08:04:05.039Z,5.07
2019-05-25T08:09:00.094Z,4.10
2019-05-25T08:13:55.102Z,4.00
2019-05-25T08:18:50.035Z,2.90
2019-05-25T08:23:45.009Z,3.43
2019-05-25T08:28:39.902Z,3.60
2019-05-25T08:33:34.820Z,3.20
2019-05-25T08:38:29.767Z,3.50
2019-05-25T08:43:24.663Z,3.47
2019-05-25T08:48:19.690Z,3.52
2019-05-25T08:53:14.649Z,4.10
2019-05-25T08:58:09.924Z,3.30
2019-05-25T09:03:05.255Z,3.58
2019-05-25T09:08:00.222Z,4.22
2019-05-25T09:12:55.243Z,3.12
2019-05-25T09:17:50.220Z,3.40
2019-05-25T09:22:45.185Z,3.72
2019-05-25T09:27:40.131Z,3.30
2019-05-25T09:32:35.171Z,3.45
2019-05-25T09:37:30.109Z,2.87
2019-05-25T09:42:25.027Z,3.72
2019-05-25T09:47:19.991Z,3.85
2019-05-25T09:52:17.187Z,3.42
2019-05-25T09:57:12.012Z,3.45
2019-05-25T10:02:06.946Z,3.50
2019-05-25T10:07:02.258Z,3.17
2019-05-25T10:11:57.159Z,3.27
2019-05-25T10:16:52.113Z,3.08
2019-05-25T10:21:47.069Z,2.70
2019-05-25T10:26:41.995Z,2.72
2019-05-25T10:31:36.911Z,2.60
2019-05-25T10:36:32.204Z,2.00
2019-05-25T10:41:27.122Z,2.05
2019-05-25T10:46:22.036Z,1.50
2019-05-25T10:51:16.997Z,1.30
2019-05-25T10:56:11.920Z,1.40
2019-05-25T11:01:06.865Z,1.52
2019-05-25T11:06:01.824Z,1.40
2019-05-25T11:10:56.738Z,1.90
2019-05-25T11:15:55.800Z,1.60
2019-05-25T11:20:50.784Z,1.92
2019-05-25T11:25:46.120Z,1.17
2019-05-25T11:30:41.124Z,1.10
2019-05-25T11:35:36.020Z,1.20
2019-05-25T11:40:32.600Z,0.80
2019-05-25T11:45:27.666Z,0.90
2019-05-25T11:50:22.598Z,0.62
2019-05-25T11:55:17.590Z,1.00
2019-05-25T12:00:24.514Z,1.10
2019-05-25T12:05:10.073Z,0.80
2019-05-25T12:10:06.613Z,1.02
2019-05-25T12:15:01.669Z,0.72
2019-05-25T12:19:56.893Z,0.90
2019-05-25T12:24:51.813Z,0.82
2019-05-25T12:29:46.742Z,1.00
2019-05-25T12:34:41.791Z,1.00
2019-05-25T12:39:36.772Z,1.17
2019-05-25T12:44:35.026Z,1.10
2019-05-25T12:49:50.270Z,1.10
2019-05-25T12:54:32.730Z,0.85
2019-05-25T12:59:27.668Z,1.10
2019-05-25T13:04:22.561Z,1.10
2019-05-25T13:09:17.449Z,1.10
2019-05-25T13:14:14.913Z,1.00
2019-05-25T13:19:11.011Z,1.20
2019-05-25T13:24:05.936Z,1.00
2019-05-25T13:29:02.100Z,1.12
2019-05-25T13:33:57.029Z,1.30
2019-05-25T13:38:55.179Z,1.72
2019-05-25T13:43:50.355Z,1.70
2019-05-25T13:48:48.631Z,1.32
2019-05-25T13:53:43.579Z,1.60
2019-05-25T13:58:39.265Z,1.50
2019-05-25T14:03:34.378Z,1.60
2019-05-25T14:08:29.318Z,1.47
2019-05-25T14:13:24.224Z,1.20
2019-05-25T14:18:19.143Z,1.60
2019-05-25T14:23:14.027Z,1.57
2019-05-25T14:28:08.970Z,1.85
2019-05-25T14:33:03.912Z,1.70
2019-05-25T14:38:02.168Z,2.27
2019-05-25T14:42:57.130Z,2.15
2019-05-25T14:47:52.066Z,1.70
2019-05-25T14:52:47.346Z,2.15
2019-05-25T14:57:42.358Z,1.90
2019-05-25T15:02:37.410Z,2.42
2019-05-25T15:07:32.400Z,2.00
2019-05-25T15:12:27.280Z,2.20
2019-05-25T15:17:22.233Z,2.33
2019-05-25T15:22:17.309Z,2.10
2019-05-25T15:27:12.713Z,2.10
2019-05-25T15:32:19.686Z,2.62
2019-05-25T15:37:05.038Z,1.75
2019-05-25T15:41:59.954Z,1.98
2019-05-25T15:46:54.989Z,2.27
2019-05-25T15:51:50.747Z,1.90
2019-05-25T15:56:45.674Z,2.22
2019-05-25T16:01:40.592Z,2.22
2019-05-25T16:06:35.532Z,2.50
2019-05-25T16:11:32.239Z,2.60
2019-05-25T16:16:30.146Z,2.42
2019-05-25T16:21:23.665Z,2.80
2019-05-25T16:26:18.630Z,2.65
2019-05-25T16:31:13.562Z,3.25
2019-05-25T16:36:11.982Z,2.80
2019-05-25T16:41:07.030Z,2.45
2019-05-25T16:46:01.968Z,2.72
2019-05-25T16:50:57.909Z,2.90
2019-05-25T16:55:54.731Z,2.55
2019-05-25T17:00:49.921Z,3.33
2019-05-25T17:05:44.863Z,1.77
2019-05-25T17:10:39.807Z,2.00
2019-05-25T17:15:34.769Z,1.50
2019-05-25T17:20:29.830Z,1.85
2019-05-25T17:25:24.820Z,1.50
2019-05-25T17:30:42.596Z,1.50
2019-05-25T17:35:38.804Z,2.30
2019-05-25T17:40:34.088Z,1.67
2019-05-25T17:45:29.067Z,1.60
2019-05-25T17:50:24.116Z,1.60
2019-05-25T17:55:19.386Z,1.30
2019-05-25T18:00:14.972Z,1.70
2019-05-25T18:05:11.011Z,1.70
2019-05-25T18:10:11.888Z,1.33
2019-05-25T18:15:07.425Z,1.60
2019-05-25T18:20:02.450Z,1.80
2019-05-25T18:24:57.998Z,1.60
2019-05-25T18:29:53.251Z,1.60
2019-05-25T18:34:48.238Z,1.60
2019-05-25T18:39:44.146Z,1.60
2019-05-25T18:44:39.182Z,2.00
2019-05-25T18:49:34.962Z,1.80
2019-05-25T18:54:29.916Z,1.90
2019-05-25T18:59:24.839Z,3.00
2019-05-25T19:04:19.767Z,2.33
2019-05-25T19:09:14.774Z,2.60
2019-05-25T19:14:09.893Z,2.20
2019-05-25T19:19:05.032Z,2.20
2019-05-25T19:24:00.349Z,2.10
2019-05-25T19:29:05.345Z,2.30
2019-05-25T19:33:58.331Z,2.37
2019-05-25T19:38:53.290Z,2.00
2019-05-25T19:43:48.260Z,2.17
2019-05-25T19:48:49.046Z,2.37
2019-05-25T19:53:44.924Z,2.10
2019-05-25T19:58:39.892Z,2.00
2019-05-25T20:03:34.749Z,2.00
2019-05-25T20:08:29.600Z,2.10
2019-05-25T20:13:24.469Z,2.20
2019-05-25T20:18:20.403Z,2.53
2019-05-25T20:23:15.356Z,2.63
2019-05-25T20:28:10.308Z,2.47
2019-05-25T20:33:05.364Z,2.60
2019-05-25T20:38:00.288Z,2.60
2019-05-25T20:42:55.239Z,2.70
2019-05-25T20:47:50.222Z,5.40
2019-05-25T20:52:48.675Z,2.73
2019-05-25T20:57:43.513Z,2.77
2019-05-25T21:02:38.393Z,3.07
2019-05-25T21:07:33.243Z,2.77
2019-05-25T21:12:28.106Z,4.17
2019-05-25T21:17:22.980Z,4.10
2019-05-25T21:22:17.845Z,3.70
2019-05-25T21:27:12.719Z,4.30
2019-05-25T21:32:07.670Z,3.47
2019-05-25T21:37:02.526Z,3.80
2019-05-25T21:41:57.454Z,3.57
2019-05-25T21:46:52.386Z,3.57
2019-05-25T21:51:47.273Z,3.57
2019-05-25T21:56:42.138Z,3.80
2019-05-25T22:01:37.093Z,3.70
2019-05-25T22:06:32.010Z,4.13
2019-05-25T22:11:28.900Z,3.60
2019-05-25T22:16:23.761Z,3.43
2019-05-25T22:21:18.632Z,3.50
2019-05-25T22:26:13.503Z,3.40
2019-05-25T22:31:10.241Z,3.43
2019-05-25T22:36:05.308Z,3.80
2019-05-25T22:41:00.208Z,3.73
2019-05-25T22:45:56.153Z,3.73
2019-05-25T22:50:51.043Z,3.60
2019-05-25T22:55:45.909Z,3.23
2019-05-25T23:00:40.752Z,3.57
2019-05-25T23:05:35.623Z,3.90
2019-05-25T23:10:30.879Z,3.20
2019-05-25T23:15:25.831Z,3.63
2019-05-25T23:20:20.810Z,4.53
2019-05-25T23:25:15.779Z,4.30
2019-05-25T23:30:14.894Z,4.00
2019-05-25T23:35:10.100Z,4.10
2019-05-25T23:40:05.934Z,4.00
2019-05-25T23:45:01.110Z,4.37
2019-05-25T23:49:59.504Z,4.20
2019-05-25T23:54:52.626Z,4.07
2019-05-25T23:59:48.495Z,4.17
